Strona główna
METAR-TAF:

METAR-TAF

Lotnisko :

Doylestown Airport

Doylestown, Pensylwania, Stany Zjednoczone

Szerokość geograficzna: 40-19-48N, Długość geograficzna: 075-07-21W, wysokość: 120 m

Aktualna obserwacja pogody

Raport powstał 17 minut temu, godzina 10:54 UTC
Wiatr 5 kt od północno-północny wschód
Temperatura 19°C
Wilgotność 100%
Ciśnienie 1013 hPa
Widzialność: 16.1 km
Zachmurzenie całkowite na wysokości 1800 ft

METAR: KDYL 191054Z AUTO 02005KT 10SM OVC018 19/19 A2991 RMK AO2 RAE04 SLP123 P0000 T01940189

czas: 07:11 (11:11 UTC)


TAF: brakujący

Obserwacja i prognoza pogody dla ponad 4000 lotnisk (raport METAR i TAF).

Dostępne stacje oznaczono żółtymi i czerwonymi punktami na mapie.

Najedź kursorem aby zobaczyć nazwę stacji.

Kliknij aby zobaczyć obserwacje i prognozy pogody.

Aby zmienić mapę: kliknij na zielony przycisk z czarnym krzyżykiem, aby powiększyć; na zielony przycisk z myślnikiem, aby pomniejszyć; na zielone strzałki, aby przejść do map sąsiednich.


METAR-TAF: